createdAt,value
2019-01-31T00:01:47.358Z,48.73
2019-01-31T00:04:25.404Z,55.12
2019-01-31T00:07:06.901Z,50.17
2019-01-31T00:09:44.880Z,49.23
2019-01-31T00:12:20.079Z,60.50
2019-01-31T00:14:54.635Z,56.33
2019-01-31T00:17:44.438Z,67.50
2019-01-31T00:20:34.047Z,65.80
2019-01-31T00:23:05.628Z,53.50
2019-01-31T00:25:52.191Z,53.57
2019-01-31T00:28:29.656Z,52.85
2019-01-31T00:31:04.131Z,53.67
2019-01-31T00:33:35.660Z,62.00
2019-01-31T00:36:13.310Z,58.30
2019-01-31T00:38:57.285Z,59.23
2019-01-31T00:41:46.852Z,51.80
2019-01-31T00:44:24.170Z,56.73
2019-01-31T00:47:04.603Z,65.17
2019-01-31T00:49:45.205Z,71.93
2019-01-31T00:52:34.654Z,56.20
2019-01-31T00:55:23.964Z,68.13
2019-01-31T00:57:58.227Z,53.07
2019-01-31T01:00:38.442Z,62.30
2019-01-31T01:03:26.799Z,58.17
2019-01-31T01:06:20.918Z,54.93
2019-01-31T01:09:07.596Z,58.17
2019-01-31T01:11:34.419Z,59.50
2019-01-31T01:14:11.801Z,66.30
2019-01-31T01:16:55.216Z,56.03
2019-01-31T01:19:38.877Z,61.50
2019-01-31T01:22:15.929Z,69.03
2019-01-31T01:24:53.249Z,65.80
2019-01-31T01:27:36.523Z,52.23
2019-01-31T01:30:20.205Z,53.45
2019-01-31T01:32:54.339Z,60.90
2019-01-31T01:35:31.622Z,52.03
2019-01-31T01:38:06.228Z,59.60
2019-01-31T01:40:40.983Z,51.13
2019-01-31T01:43:12.511Z,50.65
2019-01-31T01:45:59.240Z,51.30
2019-01-31T01:48:33.651Z,48.38
2019-01-31T01:51:17.210Z,50.90
2019-01-31T01:54:19.073Z,49.43
2019-01-31T01:56:50.671Z,47.37
2019-01-31T01:59:25.060Z,51.17
2019-01-31T02:02:14.455Z,47.13
2019-01-31T02:04:57.890Z,44.97
2019-01-31T02:07:38.538Z,57.17
2019-01-31T02:10:12.910Z,59.23
2019-01-31T02:13:00.676Z,52.97
2019-01-31T02:15:48.310Z,59.00
2019-01-31T02:18:28.803Z,66.33
2019-01-31T02:21:18.382Z,55.13
2019-01-31T02:23:58.761Z,55.03
2019-01-31T02:26:36.271Z,42.47
2019-01-31T02:29:19.682Z,47.50
2019-01-31T02:32:00.112Z,55.57
2019-01-31T02:34:40.269Z,63.63
2019-01-31T02:37:14.476Z,55.03
2019-01-31T02:39:49.079Z,51.90
2019-01-31T02:42:22.089Z,46.05
2019-01-31T02:44:56.213Z,51.07
2019-01-31T02:47:45.842Z,38.80
2019-01-31T02:50:35.320Z,29.98
2019-01-31T02:53:25.403Z,42.27
2019-01-31T02:56:22.448Z,39.90
2019-01-31T02:59:03.075Z,21.53
2019-01-31T03:01:43.380Z,16.47
2019-01-31T03:04:15.042Z,23.42
2019-01-31T03:06:46.752Z,32.63
2019-01-31T03:09:21.240Z,43.02
2019-01-31T03:11:58.875Z,20.13
2019-01-31T03:14:30.478Z,24.63
2019-01-31T03:17:23.137Z,19.13
2019-01-31T03:20:12.510Z,12.20
2019-01-31T03:22:47.010Z,22.17
2019-01-31T03:25:27.167Z,12.95
2019-01-31T03:28:31.707Z,41.37
2019-01-31T03:31:21.280Z,30.07
2019-01-31T03:34:04.683Z,27.73
2019-01-31T03:36:36.271Z,14.00
2019-01-31T03:39:19.944Z,30.57
2019-01-31T03:42:09.817Z,29.63
2019-01-31T03:44:44.409Z,25.43
2019-01-31T03:47:18.742Z,42.13
2019-01-31T03:49:53.299Z,42.07
2019-01-31T03:52:53.205Z,36.75
2019-01-31T03:55:27.736Z,39.65
2019-01-31T03:58:08.219Z,39.63
2019-01-31T04:00:48.670Z,34.80
2019-01-31T04:03:26.088Z,36.93
2019-01-31T04:05:57.674Z,48.95
2019-01-31T04:08:26.131Z,34.37
2019-01-31T04:10:54.657Z,41.40
2019-01-31T04:13:22.933Z,39.20
2019-01-31T04:15:51.334Z,47.00
2019-01-31T04:18:19.777Z,32.50
2019-01-31T04:20:51.074Z,43.50
2019-01-31T04:23:18.447Z,36.42
2019-01-31T04:25:46.803Z,37.70
2019-01-31T04:28:15.245Z,23.15
2019-01-31T04:30:43.604Z,41.77
2019-01-31T04:33:14.150Z,43.33
2019-01-31T04:35:42.556Z,43.30
2019-01-31T04:38:10.843Z,38.48
2019-01-31T04:40:39.275Z,38.30
2019-01-31T04:43:07.689Z,48.27
2019-01-31T04:45:35.987Z,45.00
2019-01-31T04:48:04.612Z,17.67
2019-01-31T04:50:33.152Z,38.37
2019-01-31T04:53:01.605Z,35.63
2019-01-31T04:55:30.068Z,35.57
2019-01-31T04:57:58.430Z,18.30
2019-01-31T05:00:26.787Z,40.07
2019-01-31T05:02:55.202Z,39.03
2019-01-31T05:05:23.586Z,29.10
2019-01-31T05:07:53.290Z,50.95
2019-01-31T05:10:21.637Z,44.80
2019-01-31T05:12:50.051Z,47.40
2019-01-31T05:15:18.360Z,34.08
2019-01-31T05:17:46.729Z,46.10
2019-01-31T05:20:17.249Z,33.03
2019-01-31T05:22:45.682Z,41.00
2019-01-31T05:25:14.809Z,47.00
2019-01-31T05:27:43.285Z,36.07
2019-01-31T05:30:14.156Z,28.00
2019-01-31T05:32:42.561Z,40.83
2019-01-31T05:35:11.871Z,39.13
2019-01-31T05:37:40.291Z,25.67
2019-01-31T05:40:12.054Z,42.20
2019-01-31T05:42:40.477Z,35.17
2019-01-31T05:45:20.333Z,45.05
2019-01-31T05:47:57.764Z,39.20
2019-01-31T05:50:28.293Z,39.60
2019-01-31T05:52:56.724Z,41.23
2019-01-31T05:55:25.097Z,30.13
2019-01-31T05:57:53.386Z,42.47
2019-01-31T06:00:25.106Z,38.70
2019-01-31T06:02:53.430Z,34.78
2019-01-31T06:05:21.705Z,37.10
2019-01-31T06:07:50.060Z,24.97
2019-01-31T06:10:18.470Z,26.33
2019-01-31T06:12:46.863Z,24.77
2019-01-31T06:15:18.671Z,40.95
2019-01-31T06:17:47.122Z,35.60
2019-01-31T06:20:23.517Z,35.13
2019-01-31T06:22:51.832Z,35.03
2019-01-31T06:25:20.175Z,49.97
2019-01-31T06:27:48.588Z,37.05
2019-01-31T06:30:18.565Z,39.77
2019-01-31T06:32:47.002Z,34.87
2019-01-31T06:35:15.580Z,35.03
2019-01-31T06:37:43.869Z,52.00
2019-01-31T06:40:15.475Z,51.17
2019-01-31T06:42:44.025Z,57.60
2019-01-31T06:45:17.496Z,21.85
2019-01-31T06:47:45.987Z,57.85
2019-01-31T06:50:14.311Z,64.55
2019-01-31T06:52:42.651Z,60.40
2019-01-31T06:55:12.304Z,21.23
2019-01-31T06:57:40.744Z,45.57
2019-01-31T07:00:20.814Z,24.23
2019-01-31T07:02:49.106Z,37.17
2019-01-31T07:05:17.414Z,45.30
2019-01-31T07:07:45.813Z,55.17
2019-01-31T07:10:20.225Z,48.03
2019-01-31T07:12:48.551Z,70.07
2019-01-31T07:15:16.978Z,85.72
2019-01-31T07:17:45.338Z,68.93
2019-01-31T07:20:17.540Z,62.03
2019-01-31T07:22:46.803Z,72.00
2019-01-31T07:25:22.145Z,58.10
2019-01-31T07:27:53.019Z,66.73
2019-01-31T07:30:23.012Z,37.47
2019-01-31T07:32:51.286Z,42.97
2019-01-31T07:35:19.651Z,64.13
2019-01-31T07:37:47.929Z,57.30
2019-01-31T07:40:22.104Z,47.83
2019-01-31T07:42:50.456Z,79.85
2019-01-31T07:45:24.352Z,65.40
2019-01-31T07:47:52.780Z,71.17
2019-01-31T07:50:21.119Z,69.30
2019-01-31T07:52:49.474Z,77.13
2019-01-31T07:55:17.987Z,64.07
2019-01-31T07:57:46.266Z,70.90
2019-01-31T08:00:20.787Z,60.20
2019-01-31T08:02:49.170Z,58.43
2019-01-31T08:05:20.342Z,77.40
2019-01-31T08:07:49.459Z,64.40
2019-01-31T08:10:32.764Z,59.50
2019-01-31T08:13:01.041Z,66.67
2019-01-31T08:15:29.331Z,60.00
2019-01-31T08:17:57.720Z,83.37
2019-01-31T08:20:26.097Z,67.80
2019-01-31T08:22:54.399Z,68.33
2019-01-31T08:25:25.337Z,66.90
2019-01-31T08:27:54.820Z,61.75
2019-01-31T08:30:31.982Z,50.30
2019-01-31T08:33:00.271Z,65.43
2019-01-31T08:35:28.649Z,71.33
2019-01-31T08:37:57.045Z,55.20
2019-01-31T08:40:25.348Z,42.27
2019-01-31T08:42:53.638Z,70.37
2019-01-31T08:45:22.046Z,62.07
2019-01-31T08:47:50.407Z,74.40
2019-01-31T08:50:21.467Z,65.53
2019-01-31T08:52:52.769Z,42.80
2019-01-31T08:55:22.195Z,56.53
2019-01-31T08:57:50.557Z,54.83
2019-01-31T09:00:21.484Z,62.27
2019-01-31T09:02:50.160Z,72.60
2019-01-31T09:05:25.869Z,62.43
2019-01-31T09:07:54.733Z,79.30
2019-01-31T09:10:28.987Z,78.67
2019-01-31T09:12:59.399Z,76.47
2019-01-31T09:15:28.939Z,72.97
2019-01-31T09:17:57.278Z,36.63
2019-01-31T09:20:29.127Z,70.87
2019-01-31T09:23:12.418Z,48.27
2019-01-31T09:26:10.498Z,73.03
2019-01-31T09:28:45.080Z,70.53
2019-01-31T09:31:34.102Z,57.50
2019-01-31T09:34:08.604Z,71.77
2019-01-31T09:37:07.975Z,52.17
2019-01-31T09:39:54.537Z,82.13
2019-01-31T09:42:43.996Z,60.50
2019-01-31T09:45:15.551Z,66.05
2019-01-31T09:47:55.785Z,69.33
2019-01-31T09:50:50.886Z,63.43
2019-01-31T09:53:29.103Z,53.02
2019-01-31T09:56:12.548Z,64.50
2019-01-31T09:59:03.652Z,52.87
2019-01-31T10:02:09.982Z,62.53
2019-01-31T10:04:44.109Z,60.85
2019-01-31T10:07:21.667Z,57.63
2019-01-31T10:10:14.316Z,57.87
2019-01-31T10:13:04.938Z,62.00
2019-01-31T10:15:51.510Z,57.70
2019-01-31T10:18:41.644Z,59.20
2019-01-31T10:21:16.226Z,55.98
2019-01-31T10:23:59.863Z,64.90
2019-01-31T10:26:56.203Z,55.80
2019-01-31T10:29:46.146Z,54.90
2019-01-31T10:32:34.707Z,55.40
2019-01-31T10:35:18.163Z,57.47
2019-01-31T10:37:52.441Z,61.37
2019-01-31T10:40:26.909Z,60.03
2019-01-31T10:43:12.794Z,49.83
2019-01-31T10:45:47.286Z,51.30
2019-01-31T10:48:21.767Z,46.93
2019-01-31T10:51:08.455Z,46.97
2019-01-31T10:53:40.093Z,52.93
2019-01-31T10:56:38.427Z,51.50
2019-01-31T10:59:10.039Z,49.77
2019-01-31T11:01:50.190Z,68.10
2019-01-31T11:04:36.636Z,52.60
2019-01-31T11:07:24.973Z,62.50
2019-01-31T11:09:59.082Z,63.17
2019-01-31T11:13:00.860Z,73.10
2019-01-31T11:15:44.496Z,55.77
2019-01-31T11:18:22.096Z,52.13
2019-01-31T11:20:56.545Z,61.67
2019-01-31T11:23:28.928Z,64.03
2019-01-31T11:26:12.631Z,52.30
2019-01-31T11:29:13.995Z,49.20
2019-01-31T11:31:58.612Z,46.97
2019-01-31T11:34:42.242Z,51.60
2019-01-31T11:37:46.688Z,46.47
2019-01-31T11:40:55.191Z,41.87
2019-01-31T11:43:35.669Z,46.02
2019-01-31T11:46:22.565Z,45.92
2019-01-31T11:48:54.105Z,41.20
2019-01-31T11:51:49.683Z,49.40
2019-01-31T11:54:24.214Z,46.97
2019-01-31T11:57:15.240Z,52.10
2019-01-31T11:59:43.591Z,50.98
2019-01-31T12:02:12.124Z,45.25
2019-01-31T12:04:40.568Z,45.10
2019-01-31T12:07:08.979Z,50.35
2019-01-31T12:09:37.254Z,42.97
2019-01-31T12:12:05.625Z,40.83
2019-01-31T12:14:33.968Z,35.77
2019-01-31T12:17:02.335Z,37.77
2019-01-31T12:19:30.624Z,41.40
2019-01-31T12:21:59.025Z,36.33
2019-01-31T12:24:27.493Z,42.10
2019-01-31T12:26:55.821Z,34.18
2019-01-31T12:29:24.144Z,36.07
2019-01-31T12:31:52.487Z,32.77
2019-01-31T12:34:20.927Z,29.80
2019-01-31T12:36:49.292Z,34.10
2019-01-31T12:39:17.675Z,31.87
2019-01-31T12:41:46.092Z,28.20
2019-01-31T12:44:14.435Z,26.93
2019-01-31T12:46:42.707Z,22.50
2019-01-31T12:49:11.115Z,24.35
2019-01-31T12:51:39.391Z,25.73
2019-01-31T12:54:07.713Z,20.37
2019-01-31T12:56:36.085Z,21.90
2019-01-31T12:59:04.615Z,22.32
2019-01-31T13:01:32.963Z,21.77
2019-01-31T13:04:01.333Z,21.50
2019-01-31T13:06:29.744Z,21.20
2019-01-31T13:08:58.090Z,20.53
2019-01-31T13:11:26.487Z,21.70
2019-01-31T13:13:54.796Z,23.20
2019-01-31T13:16:23.179Z,23.73
2019-01-31T13:18:51.590Z,22.83
2019-01-31T13:21:20.880Z,15.72
2019-01-31T13:23:49.921Z,18.40
2019-01-31T13:26:18.355Z,18.57
2019-01-31T13:28:46.753Z,14.47
2019-01-31T13:31:15.116Z,17.95
2019-01-31T13:33:46.565Z,22.97
2019-01-31T13:36:14.244Z,17.80
2019-01-31T13:38:42.622Z,18.63
2019-01-31T13:41:11.123Z,22.80
2019-01-31T13:43:39.472Z,24.03
2019-01-31T13:46:09.212Z,19.50
2019-01-31T13:48:37.530Z,26.60
2019-01-31T13:51:07.340Z,20.40
2019-01-31T13:53:35.726Z,24.73
2019-01-31T13:56:06.139Z,24.10
2019-01-31T13:58:34.713Z,22.27
2019-01-31T14:01:03.132Z,19.27
2019-01-31T14:03:31.451Z,17.83
2019-01-31T14:05:59.791Z,16.67
2019-01-31T14:08:28.233Z,19.07
2019-01-31T14:10:56.494Z,19.27
2019-01-31T14:13:24.799Z,20.63
2019-01-31T14:15:53.946Z,21.23
2019-01-31T14:18:22.584Z,15.13
2019-01-31T14:20:50.866Z,16.63
2019-01-31T14:23:19.207Z,17.48
2019-01-31T14:25:47.623Z,19.53
2019-01-31T14:28:15.996Z,16.40
2019-01-31T14:30:44.356Z,15.37
2019-01-31T14:33:14.328Z,13.80
2019-01-31T14:35:42.687Z,19.50
2019-01-31T14:38:11.077Z,15.90
2019-01-31T14:40:39.393Z,18.23
2019-01-31T14:43:07.662Z,19.17
2019-01-31T14:45:35.932Z,15.77
2019-01-31T14:48:06.212Z,19.90
2019-01-31T14:50:35.955Z,20.37
2019-01-31T14:53:04.927Z,18.50
2019-01-31T14:55:33.287Z,22.77
2019-01-31T14:58:01.643Z,23.53
2019-01-31T15:00:33.988Z,19.70
2019-01-31T15:03:02.388Z,24.33
2019-01-31T15:05:30.737Z,22.42
2019-01-31T15:07:59.097Z,20.10
2019-01-31T15:10:30.113Z,28.07
2019-01-31T15:12:58.547Z,26.43
2019-01-31T15:15:27.002Z,23.43
2019-01-31T15:17:55.436Z,18.43
2019-01-31T15:20:35.804Z,24.90
2019-01-31T15:22:56.084Z,18.97
2019-01-31T15:25:24.579Z,22.50
2019-01-31T15:27:52.942Z,21.85
2019-01-31T15:30:30.200Z,19.20
2019-01-31T15:32:58.558Z,19.53
2019-01-31T15:35:26.926Z,17.40
2019-01-31T15:37:55.311Z,15.47
2019-01-31T15:40:29.904Z,15.77
2019-01-31T15:42:58.261Z,18.47
2019-01-31T15:45:26.598Z,16.00
2019-01-31T15:47:55.128Z,14.17
2019-01-31T15:50:23.456Z,11.93
2019-01-31T15:52:51.789Z,10.97
2019-01-31T15:55:23.127Z,16.60
2019-01-31T15:57:51.535Z,20.13
2019-01-31T16:00:27.416Z,13.60
2019-01-31T16:02:55.855Z,25.23
2019-01-31T16:05:24.214Z,16.43
2019-01-31T16:07:52.595Z,14.47
2019-01-31T16:10:21.011Z,14.07
2019-01-31T16:12:49.343Z,14.53
2019-01-31T16:15:18.914Z,15.93
2019-01-31T16:17:47.268Z,18.30
2019-01-31T16:20:15.709Z,15.63
2019-01-31T16:22:44.095Z,14.50
2019-01-31T16:25:12.475Z,23.10
2019-01-31T16:27:40.749Z,18.17
2019-01-31T16:30:17.358Z,18.07
2019-01-31T16:32:45.665Z,15.90
2019-01-31T16:35:17.254Z,17.80
2019-01-31T16:37:46.664Z,16.57
2019-01-31T16:40:17.390Z,17.17
2019-01-31T16:42:45.831Z,16.20
2019-01-31T16:45:16.269Z,19.23
2019-01-31T16:47:44.602Z,15.03
2019-01-31T16:50:17.111Z,19.77
2019-01-31T16:52:45.587Z,29.50
2019-01-31T16:55:16.586Z,21.57
2019-01-31T16:57:45.695Z,20.10
2019-01-31T17:00:22.862Z,19.00
2019-01-31T17:02:51.152Z,20.97
2019-01-31T17:05:22.603Z,19.10
2019-01-31T17:07:51.099Z,20.50
2019-01-31T17:10:19.451Z,22.20
2019-01-31T17:12:47.737Z,27.47
2019-01-31T17:15:18.815Z,20.20
2019-01-31T17:17:47.232Z,21.63
2019-01-31T17:20:18.780Z,24.87
2019-01-31T17:22:47.109Z,26.30
2019-01-31T17:25:15.536Z,25.43
2019-01-31T17:27:44.088Z,20.37
2019-01-31T17:30:15.670Z,25.43
2019-01-31T17:32:44.111Z,19.93
2019-01-31T17:35:12.658Z,23.45
2019-01-31T17:37:41.061Z,20.50
2019-01-31T17:40:18.235Z,23.37
2019-01-31T17:42:46.626Z,49.37
2019-01-31T17:45:29.634Z,31.53
2019-01-31T17:47:47.762Z,25.02
2019-01-31T17:50:19.170Z,21.77
2019-01-31T17:52:49.156Z,17.63
2019-01-31T17:55:25.216Z,23.98
2019-01-31T17:57:53.602Z,25.85
2019-01-31T18:00:32.361Z,26.13
2019-01-31T18:03:00.772Z,24.47
2019-01-31T18:05:29.135Z,27.20
2019-01-31T18:07:57.976Z,21.50
2019-01-31T18:10:27.244Z,22.83
2019-01-31T18:12:55.523Z,22.03
2019-01-31T18:15:26.066Z,29.00
2019-01-31T18:17:54.907Z,23.55
2019-01-31T18:20:24.037Z,23.50
2019-01-31T18:22:52.322Z,24.33
2019-01-31T18:25:20.696Z,31.10
2019-01-31T18:27:53.075Z,22.80
2019-01-31T18:30:33.384Z,24.70
2019-01-31T18:33:01.656Z,32.17
2019-01-31T18:35:29.975Z,25.47
2019-01-31T18:37:58.766Z,29.70
2019-01-31T18:40:33.885Z,33.90
2019-01-31T18:43:02.831Z,31.10
2019-01-31T18:45:36.401Z,22.73
2019-01-31T18:48:07.060Z,29.10
2019-01-31T18:50:40.758Z,26.70
2019-01-31T18:53:09.112Z,29.10
2019-01-31T18:55:37.635Z,37.30
2019-01-31T18:58:06.986Z,89.83
2019-01-31T19:00:38.663Z,54.50
2019-01-31T19:03:08.177Z,44.87
2019-01-31T19:05:37.560Z,32.37
2019-01-31T19:08:08.833Z,37.00
2019-01-31T19:10:43.303Z,32.87
2019-01-31T19:13:07.373Z,31.80
2019-01-31T19:15:35.825Z,27.37
2019-01-31T19:18:06.334Z,35.30
2019-01-31T19:20:36.885Z,32.57
2019-01-31T19:23:07.177Z,33.27
2019-01-31T19:25:35.482Z,34.98
2019-01-31T19:28:05.354Z,32.50
2019-01-31T19:30:36.778Z,36.40
2019-01-31T19:33:06.305Z,32.63
2019-01-31T19:35:34.855Z,31.33
2019-01-31T19:38:03.421Z,33.20
2019-01-31T19:40:37.308Z,36.85
2019-01-31T19:43:06.396Z,29.80
2019-01-31T19:45:43.129Z,29.17
2019-01-31T19:48:11.627Z,33.50
2019-01-31T19:50:39.951Z,30.17
2019-01-31T19:53:08.448Z,35.93
2019-01-31T19:55:36.929Z,32.67
2019-01-31T19:58:05.505Z,33.97
2019-01-31T20:00:34.832Z,29.67
2019-01-31T20:03:03.602Z,29.03
2019-01-31T20:05:32.138Z,29.73
2019-01-31T20:08:03.423Z,37.10
2019-01-31T20:10:33.028Z,43.17
2019-01-31T20:13:01.996Z,30.08
2019-01-31T20:15:31.343Z,36.47
2019-01-31T20:17:59.969Z,34.73
2019-01-31T20:20:31.459Z,40.93
2019-01-31T20:23:00.687Z,28.30
2019-01-31T20:25:30.778Z,32.90
2019-01-31T20:28:00.986Z,32.20
2019-01-31T20:30:33.303Z,24.83
2019-01-31T20:33:02.379Z,32.80
2019-01-31T20:35:30.874Z,25.87
2019-01-31T20:37:59.910Z,23.17
2019-01-31T20:40:31.396Z,29.37
2019-01-31T20:43:01.521Z,26.33
2019-01-31T20:45:32.491Z,29.57
2019-01-31T20:48:00.883Z,27.67
2019-01-31T20:50:32.799Z,25.40
2019-01-31T20:53:01.408Z,29.80
2019-01-31T20:55:30.162Z,27.07
2019-01-31T20:57:58.440Z,30.60
2019-01-31T21:00:38.006Z,22.90
2019-01-31T21:03:08.626Z,23.53
2019-01-31T21:05:37.119Z,24.73
2019-01-31T21:08:06.918Z,22.30
2019-01-31T21:10:35.250Z,25.50
2019-01-31T21:13:03.938Z,23.70
2019-01-31T21:15:32.391Z,18.70
2019-01-31T21:18:00.684Z,15.37
2019-01-31T21:20:29.117Z,22.60
2019-01-31T21:22:57.389Z,22.13
2019-01-31T21:25:25.730Z,17.13
2019-01-31T21:27:54.060Z,18.17
2019-01-31T21:30:32.403Z,18.50
2019-01-31T21:33:16.765Z,17.57
2019-01-31T21:35:46.087Z,15.30
2019-01-31T21:38:14.605Z,24.67
2019-01-31T21:40:43.193Z,20.30
2019-01-31T21:43:11.564Z,18.02
2019-01-31T21:45:40.926Z,17.93
2019-01-31T21:48:10.407Z,17.07
2019-01-31T21:50:47.443Z,12.73
2019-01-31T21:53:17.705Z,15.83
2019-01-31T21:55:58.368Z,19.97
2019-01-31T21:58:34.965Z,16.03
2019-01-31T22:01:11.500Z,10.10
2019-01-31T22:03:40.762Z,12.27
2019-01-31T22:06:09.226Z,14.80
2019-01-31T22:08:37.549Z,14.23
2019-01-31T22:11:06.081Z,23.43
2019-01-31T22:13:34.509Z,19.03
2019-01-31T22:16:03.004Z,18.73
2019-01-31T22:18:31.412Z,15.23
2019-01-31T22:20:59.771Z,20.85
2019-01-31T22:23:28.445Z,19.10
2019-01-31T22:25:56.763Z,15.03
2019-01-31T22:28:25.145Z,16.80
2019-01-31T22:30:53.488Z,17.97
2019-01-31T22:33:23.493Z,13.50
2019-01-31T22:35:51.768Z,12.23
2019-01-31T22:38:20.200Z,19.10
2019-01-31T22:40:48.462Z,10.10
2019-01-31T22:43:16.817Z,13.23
2019-01-31T22:45:45.228Z,21.20
2019-01-31T22:48:13.579Z,17.87
2019-01-31T22:50:42.007Z,14.70
2019-01-31T22:53:10.476Z,13.77
2019-01-31T22:55:38.957Z,10.63
2019-01-31T22:58:07.226Z,13.03
2019-01-31T23:00:49.443Z,15.00
2019-01-31T23:03:17.755Z,12.97
2019-01-31T23:05:46.098Z,12.03
2019-01-31T23:08:14.447Z,11.63
2019-01-31T23:10:42.779Z,10.43
2019-01-31T23:13:11.233Z,13.53
2019-01-31T23:15:39.646Z,13.17
2019-01-31T23:18:08.025Z,14.70
2019-01-31T23:20:36.435Z,12.50
2019-01-31T23:23:04.702Z,12.83
2019-01-31T23:25:39.741Z,11.03
2019-01-31T23:28:03.124Z,10.30
2019-01-31T23:30:31.515Z,12.40
2019-01-31T23:32:59.911Z,11.57
2019-01-31T23:35:28.302Z,9.60
2019-01-31T23:37:56.693Z,13.53
2019-01-31T23:40:25.051Z,13.17
2019-01-31T23:42:53.435Z,13.10
2019-01-31T23:45:21.762Z,20.27
2019-01-31T23:47:50.138Z,9.23
2019-01-31T23:50:18.477Z,12.37
2019-01-31T23:52:46.992Z,13.43
2019-01-31T23:55:18.610Z,9.70
2019-01-31T23:57:46.942Z,11.50
